Worland Municipal Airport
KWRL : now visible

Airfield :











YOU CAN JOIN US ON...

 
LOGIN :

Register | Disclaimer

   EN    FR    IT 

 









Legend :    VFR   Marginal VFR   IFR   Intensive IFR   Very Intensive IFR
Visi :
Ceiling :
>= 8 km
>= 3000ft
5 to 8 km
1000 to 3000 ft
1500m to 5 km
500 to 1000 ft
800 to 1500m
200 to 500 ft
< 800m
< 200 ft
Symbols :   Thunderstorms  Fog  Heavy snow  Heavy precipitations  Wind > 20 kt






- Airport Elevation : 4227 ft
- IATA code : WRL


KWRL - Worland Municipal

CURRENT METAR :
  • 111853Z AUTO 23004KT 10SM CLR M11/M14 A3056 RMK AO2 SLP426 T11111144

EXPIRED METARs :
  • 111753Z AUTO 24003KT 10SM CLR M14/M16 A3059 RMK AO2 SLP440 T11391161 11139 21206 58008
  • 111653Z AUTO 00000KT 10SM CLR M15/M18 A3060 RMK AO2 SLP446 T11501178

TAF KWRL
Valid from the 11 at 18:00 until the 12 at 18:00 UTC


111731Z 1118/1218 VRB04KT P6SM SCT060
FM111900 VRB04KT P6SM SKC



MET'MAP, your aeronautical weather chart ! - Copyright ORBIFLY December 2007 - Disclaimer

ORBIFLY MET'MAP TEAM :

Programming & Development : Alexandra Zaïnal
Concept & Development : Baudouin d'Aumeries
Co-Development & Prog : Marc-Olivier Méhu
Technical & hardware support : Manuel Goepfert

Contact : metmap@orbifly.com




SOURCES & CREDITS :

   NOAA       Earth
Advisory